Time;durP1;ratioP1;P1;durP2;ratioP2;P2;SDS_P1;SDS_P2;PMS_P1;PMS_P2;Temp;Humidity;BMP_temperature;BMP_pressure;BME280_temperature;BME280_humidity;BME280_pressure;Samples;Min_cycle;Max_cycle;Signal;HPM_P1;HPM_P2
2023/08/25 00:01:08;;;;;;;6.35;4.25;;;;;;;;;;2091109;28;20033;-64
2023/08/25 00:02:27;;;;;;;7.57;4.00;;;;;;;;;;2093073;28;20054;-63
2023/08/25 00:03:46;;;;;;;6.35;4.32;;;;;;;;;;2092336;28;20331;-65
2023/08/25 00:05:06;;;;;;;4.60;3.63;;;;;;;;;;2092269;28;20071;-64
2023/08/25 00:06:25;;;;;;;4.53;4.13;;;;;;;;;;2093299;28;20028;-64
2023/08/25 00:07:44;;;;;;;4.70;3.78;;;;;;;;;;2092694;28;20017;-63
2023/08/25 00:09:03;;;;;;;5.68;4.20;;;;;;;;;;2093024;28;20556;-66
2023/08/25 00:10:25;;;;;;;7.55;3.70;;;;;;;;;;2091976;28;20036;-64
2023/08/25 00:11:44;;;;;;;5.07;4.07;;;;;;;;;;2090219;28;20032;-64
2023/08/25 00:13:03;;;;;;;5.57;3.88;;;;;;;;;;2091443;28;20083;-65
2023/08/25 00:14:22;;;;;;;5.53;3.78;;;;;;;;;;2092191;28;20037;-64
2023/08/25 00:15:42;;;;;;;4.88;3.75;;;;;;;;;;2091748;28;20029;-65
2023/08/25 00:17:02;;;;;;;5.40;3.50;;;;;;;;;;2089947;28;20025;-64
2023/08/25 00:18:21;;;;;;;9.80;4.00;;;;;;;;;;2090391;28;20025;-62
2023/08/25 00:19:40;;;;;;;4.30;3.90;;;;;;;;;;2087108;28;20566;-64
2023/08/25 00:20:59;;;;;;;3.63;3.30;;;;;;;;;;2090123;28;20401;-65
2023/08/25 00:22:18;;;;;;;4.13;3.55;;;;;;;;;;2090871;28;20123;-64
2023/08/25 00:23:38;;;;;;;5.28;3.60;;;;;;;;;;2090453;28;20033;-63
2023/08/25 00:24:57;;;;;;;4.32;3.92;;;;;;;;;;2089602;28;20025;-64
2023/08/25 00:26:16;;;;;;;9.10;4.20;;;;;;;;;;2091305;28;20100;-65
2023/08/25 00:27:35;;;;;;;5.40;3.95;;;;;;;;;;2088193;28;20107;-64
2023/08/25 00:28:53;;;;;;;7.85;3.83;;;;;;;;;;2090508;28;20021;-62
2023/08/25 00:30:13;;;;;;;9.10;4.18;;;;;;;;;;2091422;28;20021;-65
2023/08/25 00:31:32;;;;;;;11.18;4.30;;;;;;;;;;2094381;28;20057;-64
2023/08/25 00:32:51;;;;;;;7.43;3.97;;;;;;;;;;2094966;28;20032;-64
2023/08/25 00:34:10;;;;;;;4.70;3.50;;;;;;;;;;2095528;28;20509;-64
2023/08/25 00:35:28;;;;;;;13.20;4.90;;;;;;;;;;2092163;28;20115;-62
2023/08/25 00:36:47;;;;;;;9.45;4.03;;;;;;;;;;2093864;28;20116;-64
2023/08/25 00:38:06;;;;;;;3.85;3.53;;;;;;;;;;2094768;28;20385;-65
2023/08/25 00:39:25;;;;;;;3.88;3.53;;;;;;;;;;2085358;28;20034;-65
2023/08/25 00:40:44;;;;;;;10.00;3.83;;;;;;;;;;2088766;28;20489;-64
2023/08/25 00:42:04;;;;;;;5.55;4.03;;;;;;;;;;2094047;28;20029;-63
2023/08/25 00:43:22;;;;;;;5.53;3.97;;;;;;;;;;2092596;28;20033;-63
2023/08/25 00:44:41;;;;;;;5.30;3.72;;;;;;;;;;2094012;28;20075;-64
2023/08/25 00:46:01;;;;;;;7.68;4.50;;;;;;;;;;2093330;28;20477;-64
2023/08/25 00:47:21;;;;;;;6.18;3.78;;;;;;;;;;2095366;28;20032;-64
2023/08/25 00:48:40;;;;;;;7.95;4.20;;;;;;;;;;2085891;28;20014;-65
2023/08/25 00:50:00;;;;;;;6.43;3.80;;;;;;;;;;2092092;28;20496;-62
2023/08/25 00:51:19;;;;;;;10.93;4.53;;;;;;;;;;2094320;28;20025;-65
2023/08/25 00:52:38;;;;;;;6.05;4.00;;;;;;;;;;2093932;28;20041;-64
2023/08/25 00:53:58;;;;;;;9.75;4.75;;;;;;;;;;2094435;28;20108;-64
2023/08/25 00:55:17;;;;;;;9.15;3.90;;;;;;;;;;2092657;28;20041;-63
2023/08/25 00:56:35;;;;;;;5.43;3.70;;;;;;;;;;2093233;28;20034;-62
2023/08/25 00:57:55;;;;;;;4.53;3.50;;;;;;;;;;2093756;28;20028;-64
2023/08/25 00:59:14;;;;;;;3.95;3.65;;;;;;;;;;2094834;28;20025;-64
2023/08/25 01:00:33;;;;;;;4.57;3.50;;;;;;;;;;2093299;28;20048;-63
2023/08/25 01:01:52;;;;;;;4.88;3.33;;;;;;;;;;2095204;28;20056;-64
2023/08/25 01:03:11;;;;;;;6.63;3.28;;;;;;;;;;2092268;28;20021;-63
2023/08/25 01:04:31;;;;;;;3.95;3.40;;;;;;;;;;2092583;28;20489;-65
2023/08/25 01:05:50;;;;;;;7.20;3.53;;;;;;;;;;2094571;28;20025;-63
2023/08/25 01:07:10;;;;;;;4.20;3.00;;;;;;;;;;2094790;28;20029;-64
2023/08/25 01:08:29;;;;;;;7.10;3.25;;;;;;;;;;2093194;28;20033;-64
2023/08/25 01:09:48;;;;;;;5.43;3.10;;;;;;;;;;2094549;28;20021;-62
2023/08/25 01:11:14;;;;;;;4.40;3.08;;;;;;;;;;2092344;28;20033;-64
2023/08/25 01:12:59;;;;;;;4.50;3.25;;;;;;;;;;2095103;28;20036;-63
2023/08/25 01:14:23;;;;;;;3.30;3.00;;;;;;;;;;2077720;28;20032;-64
2023/08/25 01:15:45;;;;;;;3.88;3.17;;;;;;;;;;2086856;28;20049;-64
2023/08/25 01:17:13;;;;;;;3.30;2.55;;;;;;;;;;2090471;28;20024;-65
2023/08/25 01:18:33;;;;;;;5.40;3.28;;;;;;;;;;2093831;28;20577;-65
2023/08/25 01:20:00;;;;;;;4.57;3.13;;;;;;;;;;2092327;28;20397;-65
2023/08/25 01:21:20;;;;;;;6.63;4.05;;;;;;;;;;2094534;28;20477;-63
2023/08/25 01:22:58;;;;;;;5.00;3.33;;;;;;;;;;2093545;28;20163;-63
2023/08/25 01:24:21;;;;;;;4.72;3.10;;;;;;;;;;2094120;28;20033;-65
2023/08/25 01:25:40;;;;;;;6.03;3.38;;;;;;;;;;2095162;28;20112;-64
2023/08/25 01:27:00;;;;;;;3.55;3.28;;;;;;;;;;2094369;28;20589;-65
2023/08/25 01:28:20;;;;;;;5.00;4.00;;;;;;;;;;2094477;28;20136;-62
2023/08/25 01:29:41;;;;;;;7.50;4.05;;;;;;;;;;2092978;28;20021;-64
2023/08/25 01:31:00;;;;;;;7.97;3.90;;;;;;;;;;2092411;28;20706;-64
2023/08/25 01:32:19;;;;;;;10.27;5.40;;;;;;;;;;2092437;28;20146;-64
2023/08/25 01:33:39;;;;;;;9.15;6.25;;;;;;;;;;2093688;28;20044;-64
2023/08/25 01:34:58;;;;;;;8.55;5.60;;;;;;;;;;2094422;28;20066;-65
2023/08/25 01:36:20;;;;;;;8.82;4.97;;;;;;;;;;2094169;28;20037;-64
2023/08/25 01:37:42;;;;;;;8.05;5.18;;;;;;;;;;2094397;28;20024;-65
2023/08/25 01:39:06;;;;;;;7.97;5.30;;;;;;;;;;2086524;28;20033;-64
2023/08/25 01:40:32;;;;;;;8.88;5.13;;;;;;;;;;2083094;28;20064;-65
2023/08/25 01:41:56;;;;;;;6.57;5.07;;;;;;;;;;2092253;28;20064;-64
2023/08/25 01:43:18;;;;;;;7.90;5.25;;;;;;;;;;2092642;28;20028;-64
2023/08/25 01:44:38;;;;;;;6.82;5.03;;;;;;;;;;2095068;28;20400;-61
2023/08/25 01:45:57;;;;;;;6.28;4.93;;;;;;;;;;2092928;28;20016;-63
2023/08/25 01:47:18;;;;;;;7.88;5.65;;;;;;;;;;2093548;28;20037;-64
2023/08/25 01:48:38;;;;;;;6.93;4.90;;;;;;;;;;2094225;28;20021;-63
2023/08/25 01:49:57;;;;;;;8.63;6.15;;;;;;;;;;2093353;28;20020;-64
2023/08/25 01:51:16;;;;;;;8.45;5.75;;;;;;;;;;2093917;28;20032;-65
2023/08/25 01:52:35;;;;;;;8.20;5.13;;;;;;;;;;2093375;28;20446;-63
2023/08/25 01:53:55;;;;;;;8.20;5.68;;;;;;;;;;2093187;28;20040;-61
2023/08/25 01:55:14;;;;;;;8.63;6.00;;;;;;;;;;2094147;28;20079;-64
2023/08/25 01:56:33;;;;;;;10.85;5.90;;;;;;;;;;2093424;28;20041;-64
2023/08/25 01:57:52;;;;;;;10.07;6.15;;;;;;;;;;2094391;28;20040;-64
2023/08/25 01:59:11;;;;;;;5.95;5.30;;;;;;;;;;2093770;28;20040;-63
2023/08/25 02:00:30;;;;;;;10.07;6.10;;;;;;;;;;2093066;28;20056;-64
2023/08/25 02:01:49;;;;;;;8.25;5.55;;;;;;;;;;2095325;28;20033;-64
2023/08/25 02:03:08;;;;;;;10.90;5.88;;;;;;;;;;2092648;28;20032;-65
2023/08/25 02:04:27;;;;;;;6.60;5.70;;;;;;;;;;2084644;28;20014;-65
2023/08/25 02:05:46;;;;;;;5.70;4.95;;;;;;;;;;2093320;28;20444;-64
2023/08/25 02:07:05;;;;;;;6.55;5.15;;;;;;;;;;2093630;28;20033;-65
2023/08/25 02:08:24;;;;;;;6.45;4.90;;;;;;;;;;2093823;28;20021;-63
2023/08/25 02:09:43;;;;;;;9.02;5.30;;;;;;;;;;2093710;28;20032;-63
2023/08/25 02:11:03;;;;;;;6.93;5.28;;;;;;;;;;2093628;28;20025;-62
2023/08/25 02:12:21;;;;;;;4.97;4.47;;;;;;;;;;2093635;28;20029;-63
2023/08/25 02:13:40;;;;;;;7.55;4.50;;;;;;;;;;2094966;28;20028;-63
2023/08/25 02:14:59;;;;;;;6.93;4.07;;;;;;;;;;2086329;28;21340;-63
2023/08/25 02:16:18;;;;;;;7.10;4.40;;;;;;;;;;2091031;28;20037;-63
2023/08/25 02:17:37;;;;;;;7.32;4.40;;;;;;;;;;2096285;28;20032;-61
2023/08/25 02:18:56;;;;;;;5.28;3.92;;;;;;;;;;2093463;28;20029;-63
2023/08/25 02:20:15;;;;;;;4.40;4.00;;;;;;;;;;2092697;28;20033;-63
2023/08/25 02:21:34;;;;;;;7.57;4.50;;;;;;;;;;2093671;28;20028;-64
2023/08/25 02:22:53;;;;;;;5.47;3.65;;;;;;;;;;2094709;28;20032;-64
2023/08/25 02:24:12;;;;;;;6.97;3.63;;;;;;;;;;2094435;28;20051;-63
2023/08/25 02:25:31;;;;;;;5.13;4.05;;;;;;;;;;2093061;28;20022;-64
2023/08/25 02:26:50;;;;;;;5.45;3.40;;;;;;;;;;2092932;28;20481;-63
2023/08/25 02:28:09;;;;;;;8.18;3.97;;;;;;;;;;2093602;28;20029;-62
2023/08/25 02:29:28;;;;;;;6.18;3.80;;;;;;;;;;2093549;28;20028;-64
2023/08/25 02:30:47;;;;;;;4.38;3.63;;;;;;;;;;2093461;28;20521;-63
2023/08/25 02:32:07;;;;;;;10.27;4.25;;;;;;;;;;2092585;28;20029;-63
2023/08/25 02:33:26;;;;;;;7.93;4.07;;;;;;;;;;2091482;28;20613;-63
2023/08/25 02:34:45;;;;;;;4.20;3.63;;;;;;;;;;2092640;28;20032;-64
2023/08/25 02:36:04;;;;;;;6.07;3.60;;;;;;;;;;2094821;28;20029;-64
2023/08/25 02:37:23;;;;;;;3.90;3.00;;;;;;;;;;2092087;28;20025;-62
2023/08/25 02:38:42;;;;;;;5.05;3.20;;;;;;;;;;2093899;28;20025;-64
2023/08/25 02:40:02;;;;;;;5.65;3.30;;;;;;;;;;2095395;28;20056;-64
2023/08/25 02:41:20;;;;;;;10.40;3.92;;;;;;;;;;2084454;28;20481;-64
2023/08/25 02:42:39;;;;;;;11.38;3.65;;;;;;;;;;2089693;28;20429;-63
2023/08/25 02:43:58;;;;;;;8.93;4.00;;;;;;;;;;2092609;28;20021;-64
2023/08/25 02:45:17;;;;;;;6.05;3.55;;;;;;;;;;2092976;28;20025;-63
2023/08/25 02:46:37;;;;;;;6.90;4.45;;;;;;;;;;2095235;28;20025;-62
2023/08/25 02:47:56;;;;;;;8.00;4.05;;;;;;;;;;2093740;28;20020;-63
2023/08/25 02:49:16;;;;;;;3.78;3.40;;;;;;;;;;2083925;28;20029;-63
2023/08/25 02:50:35;;;;;;;9.40;2.92;;;;;;;;;;2090609;28;20020;-63
2023/08/25 02:51:56;;;;;;;3.22;2.88;;;;;;;;;;2093663;28;20051;-63
2023/08/25 02:53:14;;;;;;;5.38;2.90;;;;;;;;;;2093332;28;20016;-64
2023/08/25 02:54:33;;;;;;;4.03;3.15;;;;;;;;;;2093175;28;20056;-62
2023/08/25 02:55:52;;;;;;;10.07;3.38;;;;;;;;;;2094874;28;20423;-64
2023/08/25 02:57:11;;;;;;;6.63;3.60;;;;;;;;;;2092927;28;20436;-62
2023/08/25 02:58:30;;;;;;;3.63;3.30;;;;;;;;;;2094266;28;20052;-62
2023/08/25 02:59:49;;;;;;;3.55;3.25;;;;;;;;;;2093982;28;20091;-63
2023/08/25 03:01:12;;;;;;;5.97;3.17;;;;;;;;;;2091809;28;20028;-64
2023/08/25 03:02:31;;;;;;;6.07;3.67;;;;;;;;;;2093979;28;20020;-64
2023/08/25 03:03:51;;;;;;;4.18;3.50;;;;;;;;;;2093641;28;20021;-61
2023/08/25 03:05:10;;;;;;;6.50;3.22;;;;;;;;;;2092736;28;20486;-61
2023/08/25 03:06:28;;;;;;;6.53;3.30;;;;;;;;;;2093148;28;20478;-65
2023/08/25 03:07:50;;;;;;;7.07;3.60;;;;;;;;;;2094352;28;20021;-63
2023/08/25 03:09:09;;;;;;;5.70;3.13;;;;;;;;;;2092922;28;20373;-63
2023/08/25 03:10:28;;;;;;;3.67;3.33;;;;;;;;;;2094180;28;20052;-64
2023/08/25 03:11:47;;;;;;;6.13;3.38;;;;;;;;;;2093612;28;20033;-64
2023/08/25 03:13:06;;;;;;;3.78;3.35;;;;;;;;;;2092819;28;20025;-64
2023/08/25 03:14:28;;;;;;;7.22;3.10;;;;;;;;;;2091654;28;20028;-62
2023/08/25 03:15:52;;;;;;;5.90;3.22;;;;;;;;;;2091574;28;20021;-64
2023/08/25 03:17:11;;;;;;;3.47;3.25;;;;;;;;;;2092440;28;20029;-63
2023/08/25 03:18:30;;;;;;;7.43;3.28;;;;;;;;;;2091634;28;20021;-63
2023/08/25 03:19:49;;;;;;;3.55;3.25;;;;;;;;;;2093626;28;20029;-64
2023/08/25 03:21:08;;;;;;;6.35;3.50;;;;;;;;;;2093638;28;20531;-64
2023/08/25 03:22:27;;;;;;;5.85;3.75;;;;;;;;;;2092891;28;20477;-63
2023/08/25 03:23:46;;;;;;;5.57;3.50;;;;;;;;;;2093467;28;20017;-64
2023/08/25 03:25:05;;;;;;;4.00;3.33;;;;;;;;;;2091924;28;20032;-64
2023/08/25 03:26:24;;;;;;;6.63;3.47;;;;;;;;;;2092861;28;20021;-63
2023/08/25 03:27:43;;;;;;;5.03;3.33;;;;;;;;;;2092333;28;20021;-64
2023/08/25 03:29:02;;;;;;;3.97;3.45;;;;;;;;;;2092212;28;20388;-63
2023/08/25 03:30:21;;;;;;;4.50;3.47;;;;;;;;;;2092407;28;20029;-63
2023/08/25 03:31:40;;;;;;;5.32;2.95;;;;;;;;;;2093956;28;20444;-64
2023/08/25 03:32:59;;;;;;;5.55;3.72;;;;;;;;;;2084593;28;20121;-64
2023/08/25 03:34:18;;;;;;;3.65;3.30;;;;;;;;;;2089067;28;20528;-65
2023/08/25 03:35:37;;;;;;;7.07;3.60;;;;;;;;;;2093128;28;20056;-65
2023/08/25 03:36:56;;;;;;;5.50;4.10;;;;;;;;;;2092284;28;20595;-63
2023/08/25 03:38:15;;;;;;;3.35;3.08;;;;;;;;;;2092741;28;20032;-64
2023/08/25 03:39:34;;;;;;;4.68;3.28;;;;;;;;;;2092261;28;20036;-64
2023/08/25 03:40:57;;;;;;;3.58;3.15;;;;;;;;;;2092548;28;20037;-64
2023/08/25 03:42:16;;;;;;;6.80;2.97;;;;;;;;;;2092883;28;20405;-63
2023/08/25 03:43:36;;;;;;;5.63;3.20;;;;;;;;;;2092975;28;20024;-64
2023/08/25 03:44:55;;;;;;;8.50;3.63;;;;;;;;;;2086315;28;20025;-64
2023/08/25 03:46:14;;;;;;;4.20;3.60;;;;;;;;;;2083072;28;20025;-64
2023/08/25 03:47:33;;;;;;;4.32;3.65;;;;;;;;;;2089573;28;20036;-63
2023/08/25 03:48:52;;;;;;;4.60;4.00;;;;;;;;;;2091821;28;20478;-64
2023/08/25 03:50:11;;;;;;;5.03;4.00;;;;;;;;;;2093315;28;20025;-63
2023/08/25 03:51:30;;;;;;;8.00;4.00;;;;;;;;;;2093519;28;20072;-64
2023/08/25 03:52:52;;;;;;;3.80;3.40;;;;;;;;;;2093675;28;20060;-64
2023/08/25 03:54:11;;;;;;;6.00;4.03;;;;;;;;;;2084398;28;20029;-63
2023/08/25 03:55:30;;;;;;;4.90;4.35;;;;;;;;;;2083403;28;20033;-63
2023/08/25 03:56:49;;;;;;;10.65;4.20;;;;;;;;;;2090453;28;20060;-64
2023/08/25 03:58:07;;;;;;;7.30;3.90;;;;;;;;;;2094702;28;20037;-64
2023/08/25 03:59:26;;;;;;;5.35;3.75;;;;;;;;;;2091901;28;20044;-65
2023/08/25 04:00:50;;;;;;;6.72;3.45;;;;;;;;;;2092053;28;20494;-64
2023/08/25 04:02:09;;;;;;;6.45;3.85;;;;;;;;;;2092596;28;20048;-62
2023/08/25 04:03:28;;;;;;;6.75;3.33;;;;;;;;;;2090696;28;20036;-64
2023/08/25 04:04:47;;;;;;;3.72;3.15;;;;;;;;;;2090773;28;20032;-63
2023/08/25 04:06:06;;;;;;;4.63;3.50;;;;;;;;;;2087291;28;20033;-63
2023/08/25 04:07:25;;;;;;;8.60;3.72;;;;;;;;;;2089544;28;20044;-63
2023/08/25 04:08:44;;;;;;;6.65;3.58;;;;;;;;;;2088227;28;20505;-63
2023/08/25 04:10:03;;;;;;;4.00;3.70;;;;;;;;;;2091926;28;20032;-65
2023/08/25 04:11:22;;;;;;;6.97;3.75;;;;;;;;;;2092204;28;20034;-64
2023/08/25 04:12:41;;;;;;;6.13;3.80;;;;;;;;;;2091723;28;21403;-64
2023/08/25 04:14:00;;;;;;;5.93;3.90;;;;;;;;;;2093710;28;20063;-63
2023/08/25 04:15:20;;;;;;;3.53;3.25;;;;;;;;;;2095313;28;20424;-64
2023/08/25 04:16:39;;;;;;;4.45;3.60;;;;;;;;;;2091219;28;20036;-63
2023/08/25 04:17:58;;;;;;;7.40;3.55;;;;;;;;;;2091459;28;20497;-63
2023/08/25 04:19:18;;;;;;;6.25;3.47;;;;;;;;;;2092568;28;20981;-64
2023/08/25 04:20:37;;;;;;;5.88;3.58;;;;;;;;;;2093030;28;20037;-62
2023/08/25 04:21:56;;;;;;;5.00;3.58;;;;;;;;;;2086192;28;20079;-62
2023/08/25 04:23:15;;;;;;;6.53;3.45;;;;;;;;;;2088541;28;20692;-64
2023/08/25 04:24:34;;;;;;;6.10;4.10;;;;;;;;;;2093925;28;20041;-64
2023/08/25 04:25:53;;;;;;;7.40;3.65;;;;;;;;;;2092581;28;20017;-64
2023/08/25 04:27:12;;;;;;;5.63;3.55;;;;;;;;;;2092327;28;20107;-64
2023/08/25 04:28:31;;;;;;;4.00;3.30;;;;;;;;;;2092143;28;20695;-64
2023/08/25 04:29:51;;;;;;;5.80;3.70;;;;;;;;;;2091159;28;20116;-65
2023/08/25 04:31:10;;;;;;;3.25;2.95;;;;;;;;;;2093586;28;20501;-64
2023/08/25 04:32:29;;;;;;;5.60;3.38;;;;;;;;;;2093938;28;20119;-64
2023/08/25 04:33:48;;;;;;;5.82;4.05;;;;;;;;;;2091757;28;20499;-64
2023/08/25 04:35:08;;;;;;;5.72;3.92;;;;;;;;;;2082632;28;20124;-64
2023/08/25 04:36:27;;;;;;;6.60;4.45;;;;;;;;;;2087892;28;20033;-63
2023/08/25 04:37:50;;;;;;;7.00;4.35;;;;;;;;;;2089883;28;20528;-64
2023/08/25 04:39:10;;;;;;;7.82;4.25;;;;;;;;;;2088361;28;20598;-63
2023/08/25 04:40:30;;;;;;;11.75;4.30;;;;;;;;;;2094449;28;20032;-63
2023/08/25 04:41:49;;;;;;;9.05;4.57;;;;;;;;;;2093962;28;20115;-64
2023/08/25 04:43:07;;;;;;;8.60;4.65;;;;;;;;;;2093275;28;20115;-63
2023/08/25 04:44:26;;;;;;;7.82;4.13;;;;;;;;;;2092257;28;20111;-65
2023/08/25 04:45:46;;;;;;;8.38;3.85;;;;;;;;;;2089776;28;20029;-64
2023/08/25 04:47:05;;;;;;;7.65;4.00;;;;;;;;;;2092225;28;20115;-64
2023/08/25 04:48:24;;;;;;;5.50;4.10;;;;;;;;;;2093599;28;20029;-64
2023/08/25 04:49:43;;;;;;;4.45;3.83;;;;;;;;;;2083860;28;20048;-64
2023/08/25 04:51:02;;;;;;;4.78;3.80;;;;;;;;;;2089717;28;20421;-63
2023/08/25 04:52:21;;;;;;;7.38;4.13;;;;;;;;;;2092632;28;20037;-64
2023/08/25 04:53:41;;;;;;;5.45;4.03;;;;;;;;;;2093474;28;20033;-62
2023/08/25 04:55:02;;;;;;;4.25;3.25;;;;;;;;;;2090405;28;20025;-64
2023/08/25 04:56:21;;;;;;;6.68;3.92;;;;;;;;;;2090342;28;20510;-63
2023/08/25 04:57:41;;;;;;;5.47;3.97;;;;;;;;;;2089677;28;20107;-66
2023/08/25 04:59:00;;;;;;;4.40;3.97;;;;;;;;;;2083900;28;20108;-66
2023/08/25 05:00:19;;;;;;;4.05;3.75;;;;;;;;;;2086752;28;20060;-67
2023/08/25 05:01:39;;;;;;;4.68;3.65;;;;;;;;;;2078225;28;20049;-67
2023/08/25 05:02:58;;;;;;;6.05;3.92;;;;;;;;;;2086872;28;20481;-66
2023/08/25 05:04:17;;;;;;;6.43;3.72;;;;;;;;;;2091345;28;20037;-65
2023/08/25 05:05:36;;;;;;;6.40;4.10;;;;;;;;;;2093803;28;20042;-66
2023/08/25 05:06:55;;;;;;;5.03;3.83;;;;;;;;;;2084984;28;20056;-66
2023/08/25 05:08:14;;;;;;;4.20;3.80;;;;;;;;;;2090472;28;20497;-66
2023/08/25 05:09:33;;;;;;;4.45;4.05;;;;;;;;;;2093541;28;20136;-66
2023/08/25 05:10:52;;;;;;;4.95;3.80;;;;;;;;;;2088451;28;20447;-66
2023/08/25 05:12:11;;;;;;;7.20;3.70;;;;;;;;;;2090438;28;20585;-66
2023/08/25 05:13:30;;;;;;;6.03;3.90;;;;;;;;;;2089777;28;20085;-66
2023/08/25 05:14:49;;;;;;;4.63;4.13;;;;;;;;;;2090932;28;20041;-66
2023/08/25 05:16:08;;;;;;;4.40;3.80;;;;;;;;;;2091854;28;20032;-67
2023/08/25 05:17:27;;;;;;;4.88;4.15;;;;;;;;;;2092026;28;20037;-66
2023/08/25 05:18:46;;;;;;;4.95;4.38;;;;;;;;;;2093423;28;20033;-67
2023/08/25 05:20:08;;;;;;;6.10;3.97;;;;;;;;;;2094328;28;20041;-67
2023/08/25 05:21:26;;;;;;;4.60;3.97;;;;;;;;;;2093218;28;20025;-67
2023/08/25 05:22:45;;;;;;;5.47;4.25;;;;;;;;;;2093145;28;20115;-66
2023/08/25 05:24:18;;;;;;;5.13;4.13;;;;;;;;;;2093856;28;20040;-67
2023/08/25 05:25:37;;;;;;;5.18;4.20;;;;;;;;;;2093558;28;20029;-66
2023/08/25 05:26:56;;;;;;;4.13;3.83;;;;;;;;;;2092652;28;20024;-67
2023/08/25 05:28:15;;;;;;;5.15;3.90;;;;;;;;;;2092439;28;20485;-68
2023/08/25 05:29:34;;;;;;;5.40;4.22;;;;;;;;;;2094354;28;20028;-67
2023/08/25 05:30:53;;;;;;;4.32;4.03;;;;;;;;;;2092174;28;20111;-66
2023/08/25 05:32:12;;;;;;;4.28;3.80;;;;;;;;;;2094467;28;20037;-66
2023/08/25 05:33:31;;;;;;;4.25;3.83;;;;;;;;;;2090894;28;20025;-67
2023/08/25 05:34:50;;;;;;;4.88;4.15;;;;;;;;;;2093054;28;20033;-70
2023/08/25 05:36:09;;;;;;;7.05;4.25;;;;;;;;;;2090999;28;20063;-66
2023/08/25 05:37:28;;;;;;;6.47;4.57;;;;;;;;;;2092808;28;20040;-67
2023/08/25 05:38:47;;;;;;;6.47;3.90;;;;;;;;;;2090606;28;20386;-68
2023/08/25 05:40:07;;;;;;;6.10;3.97;;;;;;;;;;2090712;28;20132;-66
2023/08/25 05:41:26;;;;;;;8.35;3.78;;;;;;;;;;2089595;28;20040;-67
2023/08/25 05:42:45;;;;;;;5.78;4.15;;;;;;;;;;2086766;28;20087;-67
2023/08/25 05:44:04;;;;;;;4.72;3.90;;;;;;;;;;2093323;28;20028;-67
2023/08/25 05:45:23;;;;;;;5.88;3.92;;;;;;;;;;2084143;28;20024;-66
2023/08/25 05:46:42;;;;;;;4.85;4.25;;;;;;;;;;2088428;28;20056;-65
2023/08/25 05:48:01;;;;;;;4.60;4.18;;;;;;;;;;2089951;28;20064;-67
2023/08/25 05:49:20;;;;;;;4.35;3.95;;;;;;;;;;2089060;28;20032;-66
2023/08/25 05:50:39;;;;;;;3.83;3.53;;;;;;;;;;2087173;28;20025;-66
2023/08/25 05:51:58;;;;;;;5.22;3.75;;;;;;;;;;2092331;28;20033;-69
2023/08/25 05:53:17;;;;;;;4.43;3.88;;;;;;;;;;2093376;28;20053;-70
2023/08/25 05:54:36;;;;;;;6.18;4.25;;;;;;;;;;2094296;28;20017;-67
2023/08/25 05:55:57;;;;;;;5.82;4.05;;;;;;;;;;2092082;28;20021;-67
2023/08/25 05:57:16;;;;;;;4.85;3.83;;;;;;;;;;2093686;28;20460;-66
2023/08/25 05:58:35;;;;;;;5.68;3.88;;;;;;;;;;2085427;28;20401;-69
2023/08/25 05:59:54;;;;;;;4.43;3.50;;;;;;;;;;2087561;28;21072;-66
2023/08/25 06:01:13;;;;;;;4.00;3.50;;;;;;;;;;2091466;28;20037;-68
2023/08/25 06:02:32;;;;;;;6.25;3.65;;;;;;;;;;2093086;28;20216;-66
2023/08/25 06:03:51;;;;;;;4.78;3.90;;;;;;;;;;2091115;28;20028;-68
2023/08/25 06:05:10;;;;;;;5.43;3.70;;;;;;;;;;2083959;28;20126;-67
2023/08/25 06:06:30;;;;;;;4.25;3.80;;;;;;;;;;2084495;28;20025;-66
2023/08/25 06:07:49;;;;;;;7.90;3.60;;;;;;;;;;2089908;28;20023;-69
2023/08/25 06:09:08;;;;;;;7.82;4.47;;;;;;;;;;2093465;28;20489;-67
2023/08/25 06:10:27;;;;;;;7.68;3.72;;;;;;;;;;2092200;28;20243;-66
2023/08/25 06:11:46;;;;;;;4.72;4.07;;;;;;;;;;2092748;28;20587;-66
2023/08/25 06:13:05;;;;;;;3.28;2.90;;;;;;;;;;2092585;28;20482;-67
2023/08/25 06:14:24;;;;;;;6.68;3.67;;;;;;;;;;2090531;28;20036;-67
2023/08/25 06:15:44;;;;;;;4.57;4.18;;;;;;;;;;2087704;28;20036;-67
2023/08/25 06:17:03;;;;;;;6.63;3.65;;;;;;;;;;2091805;28;20029;-67
2023/08/25 06:18:22;;;;;;;8.82;3.97;;;;;;;;;;2088985;28;20082;-67
2023/08/25 06:19:43;;;;;;;5.07;4.32;;;;;;;;;;2084398;28;20029;-69
2023/08/25 06:21:02;;;;;;;9.65;4.25;;;;;;;;;;2088616;28;20028;-67
2023/08/25 06:22:22;;;;;;;4.53;4.13;;;;;;;;;;2090072;28;20050;-67
2023/08/25 06:23:40;;;;;;;6.82;3.70;;;;;;;;;;2092607;28;20024;-67
2023/08/25 06:24:59;;;;;;;3.42;3.22;;;;;;;;;;2090728;28;20386;-66
2023/08/25 06:26:18;;;;;;;7.70;3.85;;;;;;;;;;2091356;28;20032;-66
2023/08/25 06:27:37;;;;;;;4.82;3.28;;;;;;;;;;2091024;28;20021;-67
2023/08/25 06:28:56;;;;;;;4.78;3.50;;;;;;;;;;2092165;28;20024;-66
2023/08/25 06:30:16;;;;;;;4.75;4.35;;;;;;;;;;2084157;28;20040;-67
2023/08/25 06:31:35;;;;;;;7.00;4.18;;;;;;;;;;2079234;28;20409;-66
2023/08/25 06:32:54;;;;;;;4.13;3.72;;;;;;;;;;2087399;28;20040;-66
2023/08/25 06:34:13;;;;;;;4.18;3.78;;;;;;;;;;2092106;28;20032;-66
2023/08/25 06:35:32;;;;;;;5.00;3.83;;;;;;;;;;2083123;28;20032;-67
2023/08/25 06:36:51;;;;;;;4.18;3.70;;;;;;;;;;2089342;28;20060;-66
2023/08/25 06:38:10;;;;;;;4.07;3.42;;;;;;;;;;2093607;28;20029;-67
2023/08/25 06:39:29;;;;;;;4.25;3.53;;;;;;;;;;2091500;28;20331;-66
2023/08/25 06:40:48;;;;;;;4.88;2.95;;;;;;;;;;2092676;28;20055;-67
2023/08/25 06:42:07;;;;;;;4.40;3.60;;;;;;;;;;2092923;28;20312;-66
2023/08/25 06:43:26;;;;;;;3.25;2.90;;;;;;;;;;2093453;28;20107;-67
2023/08/25 06:44:45;;;;;;;5.22;3.42;;;;;;;;;;2092062;28;20029;-66
2023/08/25 06:46:04;;;;;;;4.90;3.28;;;;;;;;;;2091131;28;20024;-66
2023/08/25 06:47:24;;;;;;;5.20;3.17;;;;;;;;;;2092161;28;20020;-66
2023/08/25 06:48:43;;;;;;;9.18;3.13;;;;;;;;;;2092900;28;20017;-65
2023/08/25 06:50:02;;;;;;;3.45;2.75;;;;;;;;;;2092837;28;20108;-66
2023/08/25 06:51:21;;;;;;;3.58;3.28;;;;;;;;;;2092960;28;20032;-67
2023/08/25 06:52:40;;;;;;;4.88;3.03;;;;;;;;;;2092352;28;20036;-66
2023/08/25 06:54:01;;;;;;;6.72;3.10;;;;;;;;;;2091059;28;20035;-67
2023/08/25 06:55:20;;;;;;;6.65;3.05;;;;;;;;;;2090376;28;20029;-66
2023/08/25 06:56:39;;;;;;;5.75;3.63;;;;;;;;;;2081870;28;20033;-66
2023/08/25 06:57:59;;;;;;;3.83;2.47;;;;;;;;;;2085321;28;21648;-66
2023/08/25 06:59:18;;;;;;;6.18;3.20;;;;;;;;;;2091578;28;20067;-67
2023/08/25 07:00:37;;;;;;;6.35;2.75;;;;;;;;;;2089766;28;20520;-67
2023/08/25 07:01:56;;;;;;;3.90;2.60;;;;;;;;;;2091652;28;20489;-66
2023/08/25 07:03:15;;;;;;;7.35;3.80;;;;;;;;;;2092019;28;20048;-66
2023/08/25 07:04:34;;;;;;;5.40;2.80;;;;;;;;;;2091024;28;20024;-66
2023/08/25 07:05:57;;;;;;;7.78;3.20;;;;;;;;;;2089209;28;20119;-66
2023/08/25 07:07:23;;;;;;;5.20;3.03;;;;;;;;;;2090474;28;20493;-66
2023/08/25 07:08:42;;;;;;;4.18;2.95;;;;;;;;;;2092665;28;20032;-67
2023/08/25 07:10:01;;;;;;;2.92;2.72;;;;;;;;;;2094176;28;20028;-66
2023/08/25 07:11:20;;;;;;;3.83;2.88;;;;;;;;;;2094082;28;20108;-65
2023/08/25 07:12:40;;;;;;;8.90;3.15;;;;;;;;;;2087857;28;20029;-69
2023/08/25 07:13:59;;;;;;;3.15;2.80;;;;;;;;;;2093706;28;20104;-68
2023/08/25 07:15:18;;;;;;;3.92;3.10;;;;;;;;;;2093886;28;20041;-70
2023/08/25 07:16:37;;;;;;;5.65;2.70;;;;;;;;;;2092977;28;20036;-66
2023/08/25 07:17:56;;;;;;;6.35;2.70;;;;;;;;;;2095146;28;20024;-68
2023/08/25 07:19:16;;;;;;;5.07;3.00;;;;;;;;;;2093550;28;20040;-67
2023/08/25 07:20:35;;;;;;;5.35;2.90;;;;;;;;;;2094358;28;20582;-67
2023/08/25 07:21:54;;;;;;;5.68;2.75;;;;;;;;;;2093228;28;20066;-67
2023/08/25 07:23:13;;;;;;;3.35;3.00;;;;;;;;;;2090667;28;20032;-67
2023/08/25 07:24:32;;;;;;;3.33;2.75;;;;;;;;;;2092822;28;20481;-67
2023/08/25 07:25:52;;;;;;;3.85;3.08;;;;;;;;;;2093121;28;20028;-66
2023/08/25 07:27:11;;;;;;;3.97;3.13;;;;;;;;;;2093392;28;20028;-67
2023/08/25 07:28:30;;;;;;;3.20;2.90;;;;;;;;;;2092775;28;20036;-67
2023/08/25 07:29:49;;;;;;;3.72;3.22;;;;;;;;;;2092077;28;20529;-66
2023/08/25 07:31:08;;;;;;;6.25;3.03;;;;;;;;;;2084872;28;20025;-67
2023/08/25 07:32:27;;;;;;;5.53;2.70;;;;;;;;;;2088568;28;20389;-67
2023/08/25 07:33:45;;;;;;;9.45;2.90;;;;;;;;;;2093849;28;20028;-69
2023/08/25 07:35:05;;;;;;;3.33;3.03;;;;;;;;;;2093773;28;20397;-67
2023/08/25 07:36:24;;;;;;;3.97;2.80;;;;;;;;;;2093851;28;20124;-67
2023/08/25 07:37:43;;;;;;;3.25;2.95;;;;;;;;;;2094168;28;20028;-65
2023/08/25 07:39:03;;;;;;;3.42;3.13;;;;;;;;;;2092985;28;20036;-67
2023/08/25 07:40:23;;;;;;;4.65;3.05;;;;;;;;;;2093680;28;20057;-66
2023/08/25 07:41:41;;;;;;;4.28;3.97;;;;;;;;;;2094056;28;20032;-67
2023/08/25 07:43:03;;;;;;;3.78;2.78;;;;;;;;;;2092869;28;20045;-65
2023/08/25 07:44:23;;;;;;;5.05;3.00;;;;;;;;;;2093386;28;20025;-67
2023/08/25 07:45:42;;;;;;;4.38;3.17;;;;;;;;;;2093287;28;20124;-67
2023/08/25 07:47:01;;;;;;;3.80;3.00;;;;;;;;;;2092510;28;20163;-67
2023/08/25 07:48:20;;;;;;;3.35;3.08;;;;;;;;;;2092981;28;20020;-66
2023/08/25 07:49:39;;;;;;;6.85;3.00;;;;;;;;;;2092366;28;20076;-66
2023/08/25 07:50:58;;;;;;;4.10;2.60;;;;;;;;;;2092955;28;20490;-66
2023/08/25 07:52:17;;;;;;;3.03;2.83;;;;;;;;;;2092570;28;20596;-66
2023/08/25 07:53:36;;;;;;;4.15;3.03;;;;;;;;;;2093969;28;20041;-67
2023/08/25 07:54:56;;;;;;;5.45;3.15;;;;;;;;;;2093279;28;20024;-66
2023/08/25 07:56:15;;;;;;;3.65;3.42;;;;;;;;;;2093498;28;20021;-66
2023/08/25 07:57:35;;;;;;;3.58;3.10;;;;;;;;;;2091916;28;20036;-67